Time;durP1;ratioP1;P1;durP2;ratioP2;P2;SDS_P1;SDS_P2;PMS_P1;PMS_P2;Temp;Humidity;BMP_temperature;BMP_pressure;BME280_temperature;BME280_humidity;BME280_pressure;Samples;Min_cycle;Max_cycle;Signal;HPM_P1;HPM_P2
2022/07/05 00:00:12;;;;;;;14.60;6.50;;;;;;;19.61;46.88;98943.13;105847;1278;97922;-64
2022/07/05 00:03:03;;;;;;;12.30;6.30;;;;;;;19.55;47.28;98948.52;105816;1279;109156;-64
2022/07/05 00:05:31;;;;;;;11.80;6.00;;;;;;;19.54;47.31;98954.79;105823;1279;97999;-63
2022/07/05 00:08:03;;;;;;;14.50;6.60;;;;;;;19.55;47.52;98956.60;105909;1280;97883;-64
2022/07/05 00:10:36;;;;;;;17.00;6.70;;;;;;;19.59;47.69;98961.34;105813;1279;112037;-63
2022/07/05 00:13:08;;;;;;;17.50;6.60;;;;;;;19.64;47.82;98964.94;105693;1280;96379;-64
2022/07/05 00:15:36;;;;;;;13.20;6.60;;;;;;;19.69;47.93;98962.42;105829;1279;107905;-63
2022/07/05 00:18:04;;;;;;;17.50;6.10;;;;;;;19.73;47.93;98967.01;105858;1279;97909;-65
2022/07/05 00:20:35;;;;;;;14.80;5.80;;;;;;;19.78;47.91;98967.36;105821;1278;97888;-63
2022/07/05 00:23:03;;;;;;;12.80;6.00;;;;;;;19.83;47.99;98962.69;105812;1278;111725;-64
2022/07/05 00:25:33;;;;;;;16.50;6.90;;;;;;;19.87;48.04;98957.20;105901;1280;97903;-64
2022/07/05 00:28:03;;;;;;;14.00;6.50;;;;;;;19.90;48.03;98960.30;105960;1278;108367;-64
2022/07/05 00:30:34;;;;;;;14.50;6.10;;;;;;;19.92;48.03;98957.13;105966;1280;97959;-67
2022/07/05 00:33:02;;;;;;;14.30;6.30;;;;;;;19.94;47.94;98953.87;105841;1278;95220;-64
2022/07/05 00:35:30;;;;;;;14.10;6.20;;;;;;;19.91;48.11;98951.70;105832;1278;111694;-64
2022/07/05 00:37:58;;;;;;;11.70;6.10;;;;;;;19.90;48.16;98943.12;105821;1280;98080;-63
2022/07/05 00:40:26;;;;;;;14.60;6.10;;;;;;;19.92;48.31;98946.57;105772;1280;108263;-64
2022/07/05 00:42:56;;;;;;;14.50;5.90;;;;;;;19.95;48.40;98944.79;105815;1278;98090;-63
2022/07/05 00:45:29;;;;;;;17.00;7.10;;;;;;;19.98;48.35;98947.71;105838;1278;97807;-63
2022/07/05 00:47:59;;;;;;;14.00;5.90;;;;;;;19.96;48.17;98948.77;105969;1278;111515;-62
2022/07/05 00:50:33;;;;;;;13.00;6.10;;;;;;;19.92;48.16;98946.70;105964;1280;95203;-64
2022/07/05 00:53:02;;;;;;;20.60;7.90;;;;;;;19.89;48.31;98945.11;105845;1280;107872;-63
2022/07/05 00:55:33;;;;;;;18.10;7.70;;;;;;;19.87;48.39;98941.11;105889;1278;95274;-63
2022/07/05 00:58:04;;;;;;;20.50;7.80;;;;;;;19.86;48.43;98939.48;105821;1279;97957;-64
2022/07/05 01:00:32;;;;;;;16.20;8.10;;;;;;;19.78;48.49;98936.39;105817;1278;111749;-60
2022/07/05 01:03:01;;;;;;;17.70;7.30;;;;;;;19.74;48.65;98941.34;105930;1279;98580;-64
2022/07/05 01:05:34;;;;;;;17.80;7.30;;;;;;;19.73;48.77;98946.53;105848;1279;108402;-64
2022/07/05 01:08:03;;;;;;;16.80;6.70;;;;;;;19.70;48.84;98950.75;105906;1279;95358;-65
2022/07/05 01:10:31;;;;;;;16.50;7.50;;;;;;;19.71;49.02;98958.23;105967;1278;98023;-66
2022/07/05 01:13:03;;;;;;;17.70;7.40;;;;;;;19.75;49.16;98959.45;105959;1278;111771;-63
2022/07/05 01:15:34;;;;;;;15.30;6.60;;;;;;;19.80;49.24;98959.95;105886;1280;97882;-63
2022/07/05 01:18:05;;;;;;;15.30;6.90;;;;;;;19.84;49.27;98961.80;105951;1278;108372;-65
2022/07/05 01:20:34;;;;;;;16.10;7.10;;;;;;;19.87;49.31;98966.16;105835;1279;97877;-64
2022/07/05 01:23:04;;;;;;;20.10;8.50;;;;;;;19.88;49.30;98970.17;105840;1279;97865;-62
2022/07/05 01:25:34;;;;;;;17.30;6.90;;;;;;;19.91;49.46;98974.15;105787;1278;112116;-63
2022/07/05 01:28:04;;;;;;;17.00;7.60;;;;;;;19.95;49.45;98971.42;105864;1278;97914;-64
2022/07/05 01:30:37;;;;;;;23.80;8.20;;;;;;;19.98;49.59;98972.42;105791;1279;108134;-64
2022/07/05 01:33:09;;;;;;;19.40;8.20;;;;;;;20.00;49.64;98970.44;105734;1279;97849;-64
2022/07/05 01:35:37;;;;;;;17.90;8.10;;;;;;;20.03;49.60;98971.00;105813;1279;97866;-64
2022/07/05 01:38:05;;;;;;;16.30;8.00;;;;;;;20.05;49.74;98973.28;105866;1278;112112;-63
2022/07/05 01:40:34;;;;;;;18.80;7.50;;;;;;;20.07;49.79;98967.84;105735;1279;97968;-67
2022/07/05 01:43:06;;;;;;;18.90;8.00;;;;;;;20.10;49.91;98970.14;105860;1280;108314;-69
2022/07/05 01:45:41;;;;;;;17.80;7.50;;;;;;;20.11;49.84;98966.96;105812;1279;97900;-63
2022/07/05 01:48:15;;;;;;;15.10;7.00;;;;;;;20.13;49.91;98965.46;105887;1279;96479;-62
2022/07/05 01:50:54;;;;;;;13.30;6.20;;;;;;;20.11;49.76;98964.21;105863;1278;111413;-64
2022/07/05 01:53:29;;;;;;;17.70;7.10;;;;;;;20.05;49.73;98955.14;105880;1279;97930;-63
2022/07/05 01:56:01;;;;;;;14.00;6.40;;;;;;;20.00;49.68;98955.60;105904;1279;107502;-64
2022/07/05 01:58:32;;;;;;;15.90;6.80;;;;;;;19.92;49.73;98953.95;105892;1279;96245;-64
2022/07/05 02:01:00;;;;;;;16.30;6.70;;;;;;;19.83;49.72;98950.80;105862;1278;99364;-65
2022/07/05 02:03:34;;;;;;;12.70;6.20;;;;;;;19.75;49.90;98948.05;105792;1278;111783;-64
2022/07/05 02:06:22;;;;;;;14.90;6.80;;;;;;;19.71;50.08;98946.37;105783;1280;97910;-64
2022/07/05 02:08:50;;;;;;;15.50;7.10;;;;;;;19.67;50.09;98945.95;105849;1278;108285;-64
2022/07/05 02:11:18;;;;;;;15.10;6.80;;;;;;;19.65;50.18;98945.95;105823;1278;97975;-63
2022/07/05 02:13:46;;;;;;;15.30;6.80;;;;;;;19.64;50.08;98945.70;105854;1278;97057;-63
2022/07/05 02:16:17;;;;;;;16.00;7.50;;;;;;;19.59;50.34;98947.52;105765;1278;111719;-65
2022/07/05 02:18:47;;;;;;;13.90;7.20;;;;;;;19.56;50.53;98945.30;105825;1279;96847;-63
2022/07/05 02:21:20;;;;;;;15.70;7.20;;;;;;;19.57;50.69;98947.52;105803;1278;110453;-63
2022/07/05 02:23:51;;;;;;;18.20;7.50;;;;;;;19.60;50.62;98948.65;105765;1278;98518;-65
2022/07/05 02:26:19;;;;;;;18.60;7.20;;;;;;;19.63;50.63;98955.86;105805;1278;97869;-64
2022/07/05 02:28:52;;;;;;;15.40;6.90;;;;;;;19.65;50.75;98962.63;105782;1278;114097;-63
2022/07/05 02:31:20;;;;;;;18.90;7.80;;;;;;;19.69;50.80;98968.37;105746;1279;95607;-64
2022/07/05 02:33:52;;;;;;;20.70;7.80;;;;;;;19.72;50.90;98965.99;105861;1278;108362;-63
2022/07/05 02:36:24;;;;;;;18.50;7.90;;;;;;;19.75;50.87;98954.17;105887;1279;98603;-65
2022/07/05 02:38:52;;;;;;;18.70;7.70;;;;;;;19.77;50.96;98953.55;105935;1278;97878;-64
2022/07/05 02:41:20;;;;;;;16.20;7.40;;;;;;;19.81;51.02;98955.67;105880;1278;112031;-65
2022/07/05 02:43:54;;;;;;;15.90;7.50;;;;;;;19.82;51.04;98954.46;105832;1278;96265;-64
2022/07/05 02:46:22;;;;;;;19.80;8.00;;;;;;;19.84;51.04;98958.85;105780;1278;107744;-63
2022/07/05 02:48:54;;;;;;;19.50;8.20;;;;;;;19.84;51.10;98961.13;105786;1278;99140;-64
2022/07/05 02:51:27;;;;;;;15.00;6.60;;;;;;;19.84;51.17;98964.91;105841;1278;97865;-63
2022/07/05 02:53:57;;;;;;;14.10;6.60;;;;;;;19.83;51.23;98967.35;105810;1278;112064;-64
2022/07/05 02:56:27;;;;;;;14.90;7.00;;;;;;;19.83;51.20;98966.84;105809;1278;97922;-65
2022/07/05 02:58:58;;;;;;;13.60;6.40;;;;;;;19.83;51.35;98964.40;105782;1278;108328;-63
2022/07/05 03:01:27;;;;;;;15.00;6.70;;;;;;;19.84;51.35;98965.48;105792;1278;97900;-65
2022/07/05 03:03:59;;;;;;;16.00;6.60;;;;;;;19.84;51.37;98963.06;105797;1278;97915;-65
2022/07/05 03:06:29;;;;;;;13.10;6.20;;;;;;;19.84;51.53;98964.20;105778;1277;110332;-63
2022/07/05 03:08:59;;;;;;;13.80;6.30;;;;;;;19.84;51.54;98968.36;105808;1278;97978;-63
2022/07/05 03:11:30;;;;;;;12.80;6.60;;;;;;;19.84;51.61;98978.54;105814;1278;108764;-64
2022/07/05 03:14:00;;;;;;;14.90;6.40;;;;;;;19.84;51.70;98982.34;105757;1279;98101;-63
2022/07/05 03:16:31;;;;;;;15.00;6.70;;;;;;;19.84;51.73;98986.45;105804;1278;97902;-63
2022/07/05 03:19:01;;;;;;;19.60;7.70;;;;;;;19.84;51.81;98983.90;105805;1278;112278;-64
2022/07/05 03:21:29;;;;;;;17.70;8.70;;;;;;;19.85;51.85;98985.79;105885;1278;97751;-64
2022/07/05 03:23:59;;;;;;;18.80;8.90;;;;;;;19.86;51.87;98988.08;105679;1278;108513;-64
2022/07/05 03:26:29;;;;;;;22.60;8.90;;;;;;;19.87;51.94;98988.23;105774;1277;97868;-64
2022/07/05 03:28:59;;;;;;;22.40;9.20;;;;;;;19.89;52.05;98992.60;105811;1278;95231;-66
2022/07/05 03:31:32;;;;;;;19.90;9.00;;;;;;;19.91;52.13;98994.54;105852;1278;111812;-66
2022/07/05 03:34:03;;;;;;;18.80;9.40;;;;;;;19.92;52.20;98999.23;105952;1278;97986;-63
2022/07/05 03:36:31;;;;;;;19.00;8.70;;;;;;;19.93;52.24;99002.94;105819;1278;107831;-63
2022/07/05 03:39:01;;;;;;;19.10;8.50;;;;;;;19.94;52.19;99006.11;105891;1277;97926;-64
2022/07/05 03:41:30;;;;;;;18.50;8.60;;;;;;;19.94;52.22;99003.71;105882;1278;96371;-65
2022/07/05 03:43:58;;;;;;;15.90;7.60;;;;;;;19.95;52.37;99001.98;105770;1277;111999;-64
2022/07/05 03:46:28;;;;;;;15.90;7.60;;;;;;;19.97;52.49;99000.02;103577;1278;2944852;-63
2022/07/05 03:48:57;;;;;;;21.70;9.90;;;;;;;20.04;52.13;99002.24;105585;1277;108390;-64
2022/07/05 03:51:27;;;;;;;16.70;8.10;;;;;;;20.15;52.44;99011.09;105730;1277;97871;-63
2022/07/05 03:53:56;;;;;;;17.30;8.40;;;;;;;20.14;52.70;99015.86;105791;1278;95273;-64
2022/07/05 03:56:25;;;;;;;16.40;7.50;;;;;;;20.15;52.68;99018.83;105852;1277;111269;-64
2022/07/05 03:58:56;;;;;;;15.30;7.50;;;;;;;20.16;52.71;99017.30;105746;1277;97721;-63
2022/07/05 04:01:25;;;;;;;17.00;6.90;;;;;;;20.15;52.85;99013.95;105831;1278;108350;-65
2022/07/05 04:03:53;;;;;;;15.10;6.70;;;;;;;20.16;52.83;99015.27;105737;1278;97907;-64
2022/07/05 04:06:24;;;;;;;17.00;7.50;;;;;;;20.19;53.00;99020.73;105740;1278;97850;-63
2022/07/05 04:08:57;;;;;;;16.70;7.10;;;;;;;20.21;53.06;99027.86;105793;1278;112416;-63
2022/07/05 04:11:25;;;;;;;13.90;6.90;;;;;;;20.23;53.02;99035.56;105827;1277;97704;-64
2022/07/05 04:13:53;;;;;;;16.80;7.00;;;;;;;20.25;52.94;99041.52;105933;1278;108279;-61
2022/07/05 04:16:22;;;;;;;22.90;8.00;;;;;;;20.24;52.79;99041.98;105760;1278;97888;-66
2022/07/05 04:18:53;;;;;;;20.30;7.70;;;;;;;20.22;53.00;99037.79;105828;1278;97802;-66
2022/07/05 04:21:21;;;;;;;18.60;8.30;;;;;;;20.20;53.12;99029.09;105701;1277;112239;-64
2022/07/05 04:23:51;;;;;;;20.10;9.40;;;;;;;20.23;53.09;99023.84;105693;1277;96430;-65
2022/07/05 04:26:20;;;;;;;21.60;9.50;;;;;;;20.27;53.19;99019.98;105680;1279;106968;-66
2022/07/05 04:28:49;;;;;;;19.00;8.50;;;;;;;20.31;53.20;99020.46;105760;1277;97912;-67
2022/07/05 04:31:24;;;;;;;19.90;9.50;;;;;;;20.34;53.26;99023.38;105777;1281;96534;-68
2022/07/05 04:33:53;;;;;;;23.90;9.30;;;;;;;20.38;53.30;99021.94;105799;1277;112084;-68
2022/07/05 04:36:23;;;;;;;20.70;9.60;;;;;;;20.44;53.34;99017.33;105744;1278;98005;-66
2022/07/05 04:38:50;;;;;;;22.00;9.40;;;;;;;20.49;53.36;99016.70;105840;1278;108161;-67
2022/07/05 04:41:18;;;;;;;21.00;9.20;;;;;;;20.55;53.42;99016.27;105739;1277;97995;-64
2022/07/05 04:43:49;;;;;;;18.80;8.50;;;;;;;20.62;53.40;99020.09;105669;1277;97855;-65
2022/07/05 04:46:18;;;;;;;19.30;9.20;;;;;;;20.69;53.36;99027.05;105429;1278;112081;-66
2022/07/05 04:48:47;;;;;;;19.50;9.20;;;;;;;20.78;53.44;99032.25;107641;1277;95991;-65
2022/07/05 04:51:15;;;;;;;18.70;8.40;;;;;;;20.85;53.48;99029.11;107545;1277;107459;-65
2022/07/05 04:53:43;;;;;;;15.00;7.40;;;;;;;20.94;53.50;99029.48;105995;1277;97874;-65
2022/07/05 04:56:11;;;;;;;16.80;7.50;;;;;;;21.03;53.43;99026.65;105599;1277;96461;-65
2022/07/05 04:58:39;;;;;;;16.60;7.30;;;;;;;21.10;53.42;99027.16;105502;1277;111467;-64
2022/07/05 05:01:07;;;;;;;22.00;7.90;;;;;;;21.20;53.30;99030.61;105744;1278;96311;-65
2022/07/05 05:03:38;;;;;;;16.00;7.70;;;;;;;21.27;53.43;99026.48;105789;1277;108351;-65
2022/07/05 05:06:08;;;;;;;14.10;7.40;;;;;;;21.35;53.40;99023.98;105809;1278;96230;-66
2022/07/05 05:08:41;;;;;;;16.70;7.80;;;;;;;21.43;53.52;99018.17;105886;1277;97962;-65
2022/07/05 05:11:09;;;;;;;15.80;7.70;;;;;;;21.52;53.44;99018.19;105828;1278;112003;-66
2022/07/05 05:13:37;;;;;;;17.60;8.00;;;;;;;21.60;53.68;99018.30;105770;1277;97975;-66
2022/07/05 05:16:05;;;;;;;18.60;7.50;;;;;;;21.68;53.41;99020.26;105784;1277;108199;-67
2022/07/05 05:18:36;;;;;;;16.80;7.20;;;;;;;21.76;53.66;99022.34;105799;1277;97937;-67
2022/07/05 05:21:06;;;;;;;18.60;7.50;;;;;;;21.86;53.58;99021.30;105752;1277;97918;-65
2022/07/05 05:23:35;;;;;;;15.20;7.30;;;;;;;21.97;53.59;99021.51;105777;1278;112204;-66
2022/07/05 05:26:05;;;;;;;23.30;7.50;;;;;;;22.08;53.72;99026.44;105730;1278;97992;-66
2022/07/05 05:28:35;;;;;;;14.50;7.10;;;;;;;22.20;53.56;99027.98;105715;1277;108926;-65
2022/07/05 05:31:08;;;;;;;15.70;7.80;;;;;;;22.30;53.42;99028.08;105787;1277;96243;-65
2022/07/05 05:33:37;;;;;;;19.90;6.90;;;;;;;22.40;53.30;99025.11;105832;1278;96756;-66
2022/07/05 05:36:07;;;;;;;16.10;7.40;;;;;;;22.49;53.29;99026.33;105852;1277;111395;-66
2022/07/05 05:38:37;;;;;;;16.10;7.00;;;;;;;22.57;53.24;99029.73;105858;1277;95699;-65
2022/07/05 05:41:05;;;;;;;15.10;6.70;;;;;;;22.64;53.50;99029.61;105820;1277;108963;-64
2022/07/05 05:43:35;;;;;;;18.40;6.80;;;;;;;22.70;53.54;99026.36;105838;1277;98586;-64
2022/07/05 05:46:05;;;;;;;14.40;6.60;;;;;;;22.76;53.31;99025.42;105924;1277;97867;-63
2022/07/05 05:48:36;;;;;;;18.30;6.70;;;;;;;22.83;53.28;99029.66;105912;1277;112170;-64
2022/07/05 05:51:06;;;;;;;14.00;6.60;;;;;;;22.93;53.37;99038.61;105936;1277;97975;-66
2022/07/05 05:53:34;;;;;;;15.80;6.50;;;;;;;23.05;53.33;99041.31;105875;1277;108288;-67
2022/07/05 05:56:02;;;;;;;15.10;6.80;;;;;;;23.15;53.06;99042.70;105857;1278;96353;-65
2022/07/05 05:58:31;;;;;;;13.70;7.10;;;;;;;23.23;53.25;99044.92;105938;1278;95289;-66
2022/07/05 06:01:00;;;;;;;14.80;6.80;;;;;;;23.29;53.03;99048.99;105810;1278;111889;-67
2022/07/05 06:03:28;;;;;;;14.50;6.50;;;;;;;23.34;52.90;99051.41;105829;1278;96246;-66
2022/07/05 06:05:57;;;;;;;14.80;6.60;;;;;;;23.41;52.93;99053.37;105885;1277;108436;-66
2022/07/05 06:08:25;;;;;;;17.40;6.70;;;;;;;23.51;52.90;99051.51;105927;1277;95274;-65
2022/07/05 06:10:53;;;;;;;14.10;6.60;;;;;;;23.60;52.84;99040.16;105796;1277;95262;-67
2022/07/05 06:13:33;;;;;;;15.70;7.10;;;;;;;23.72;52.79;99037.10;105781;1278;112028;-66
2022/07/05 06:16:08;;;;;;;14.90;6.90;;;;;;;23.84;52.65;99036.52;105898;1278;97994;-67
2022/07/05 06:18:36;;;;;;;12.10;6.50;;;;;;;23.95;52.74;99038.43;105746;1277;107428;-65
2022/07/05 06:21:04;;;;;;;13.10;6.30;;;;;;;24.07;52.68;99034.64;105786;1277;97943;-66
2022/07/05 06:23:34;;;;;;;13.70;6.30;;;;;;;24.20;52.40;99036.80;105850;1277;97992;-67
2022/07/05 06:26:05;;;;;;;14.80;6.10;;;;;;;24.33;52.50;99042.16;105800;1278;111774;-67
2022/07/05 06:28:35;;;;;;;15.70;6.70;;;;;;;24.47;52.45;99046.56;105810;1277;95248;-66
2022/07/05 06:31:05;;;;;;;11.50;6.30;;;;;;;24.65;52.23;99040.73;105972;1277;107441;-67
2022/07/05 06:33:33;;;;;;;11.30;6.10;;;;;;;24.86;52.16;99038.10;105907;1277;97848;-64
2022/07/05 06:36:00;;;;;;;13.30;6.70;;;;;;;25.01;52.06;99033.08;105893;1278;98571;-66
2022/07/05 06:38:28;;;;;;;15.90;6.50;;;;;;;25.14;52.08;99027.77;105951;1277;110895;-66
2022/07/05 06:40:57;;;;;;;11.70;5.90;;;;;;;25.24;51.82;99020.61;105937;1277;96359;-68
2022/07/05 06:43:26;;;;;;;14.20;6.00;;;;;;;25.35;51.88;99022.79;105917;1277;108438;-68
2022/07/05 06:45:55;;;;;;;15.00;6.30;;;;;;;25.46;51.68;99022.98;105850;1277;97979;-67
2022/07/05 06:48:24;;;;;;;11.10;5.60;;;;;;;25.59;51.54;99021.63;105965;1277;96339;-66
2022/07/05 06:50:54;;;;;;;13.60;6.00;;;;;;;25.73;51.57;99020.69;105917;1277;111206;-66
2022/07/05 06:53:24;;;;;;;11.10;5.30;;;;;;;25.89;51.44;99018.95;105877;1278;96338;-66
2022/07/05 06:55:54;;;;;;;14.30;6.10;;;;;;;26.08;51.27;99022.47;105877;1277;108394;-67
2022/07/05 06:58:25;;;;;;;10.40;5.50;;;;;;;26.30;51.19;99021.63;105936;1277;98603;-67
2022/07/05 07:00:55;;;;;;;10.50;5.70;;;;;;;26.57;51.11;99020.99;105910;1277;95735;-66
2022/07/05 07:03:43;;;;;;;17.60;6.20;;;;;;;26.90;50.52;99019.65;105910;1277;112015;-67
2022/07/05 07:06:31;;;;;;;13.90;6.10;;;;;;;27.56;50.45;99018.99;105930;1277;98199;-68
2022/07/05 07:09:20;;;;;;;13.80;6.20;;;;;;;28.69;49.77;99012.33;106031;1277;108435;-66
2022/07/05 07:11:49;;;;;;;12.60;5.60;;;;;;;29.77;49.12;99009.97;105848;1277;97940;-66
2022/07/05 07:14:18;;;;;;;9.80;5.00;;;;;;;30.78;49.03;99008.50;105921;1277;98130;-67
2022/07/05 07:16:47;;;;;;;10.10;4.90;;;;;;;31.84;48.78;99007.27;105888;1277;111924;-67
2022/07/05 07:19:17;;;;;;;6.60;4.40;;;;;;;32.79;48.66;99004.34;105861;1277;97964;-66
2022/07/05 07:21:48;;;;;;;9.60;4.60;;;;;;;33.82;48.16;99005.97;105944;1277;108969;-64
2022/07/05 07:24:16;;;;;;;7.90;4.50;;;;;;;34.90;48.26;99004.23;105899;1277;97992;-65
2022/07/05 07:29:41;;;;;;;6.80;4.00;;;;;;;37.02;46.55;99014.05;105720;1278;112242;-66
2022/07/05 07:32:14;;;;;;;11.20;4.70;;;;;;;37.61;46.50;99019.40;105859;1277;96529;-67
2022/07/05 07:34:42;;;;;;;8.70;4.30;;;;;;;37.54;46.65;99019.30;105882;1277;108455;-67
2022/07/05 07:37:13;;;;;;;9.00;4.90;;;;;;;37.54;46.05;99019.91;105860;1277;98450;-67
2022/07/05 07:39:44;;;;;;;13.50;5.50;;;;;;;38.18;44.73;99017.46;105957;1277;98024;-66
2022/07/05 07:42:14;;;;;;;9.40;4.60;;;;;;;38.90;44.06;99014.88;105941;1277;111750;-65
2022/07/05 07:44:44;;;;;;;7.90;4.60;;;;;;;39.62;43.66;99013.67;105901;1277;98376;-67
2022/07/05 07:47:14;;;;;;;9.40;4.70;;;;;;;40.13;43.11;99011.30;105927;1277;108330;-65
2022/07/05 07:49:42;;;;;;;8.50;4.90;;;;;;;40.08;42.76;99010.70;105961;1277;97916;-67
2022/07/05 07:52:18;;;;;;;9.20;4.50;;;;;;;39.52;42.34;99011.39;105907;1277;95296;-67
2022/07/05 07:54:46;;;;;;;9.80;4.80;;;;;;;39.56;41.57;99012.77;105896;1277;111388;-66
2022/07/05 07:57:17;;;;;;;10.20;4.70;;;;;;;39.48;40.53;99010.67;105873;1277;97847;-68
2022/07/05 07:59:50;;;;;;;11.20;4.90;;;;;;;38.96;40.54;99001.67;105864;1277;107780;-65
2022/07/05 08:02:21;;;;;;;10.90;4.80;;;;;;;38.40;40.12;98996.69;105946;1277;95297;-68
2022/07/05 08:04:53;;;;;;;10.30;5.00;;;;;;;37.78;39.49;98989.64;105953;1277;97954;-65
2022/07/05 08:07:22;;;;;;;9.20;4.90;;;;;;;37.18;39.14;98990.65;106010;1277;111289;-66
2022/07/05 08:09:52;;;;;;;8.30;4.70;;;;;;;36.62;38.85;98993.13;105783;1277;97976;-68
2022/07/05 08:12:21;;;;;;;8.00;4.90;;;;;;;36.09;38.64;98987.70;105771;1277;108350;-68
2022/07/05 08:14:49;;;;;;;8.30;4.30;;;;;;;35.55;38.41;98993.43;105746;1277;97892;-67
2022/07/05 08:17:20;;;;;;;8.70;4.70;;;;;;;35.01;38.04;98992.94;105813;1277;97993;-67
2022/07/05 08:22:37;;;;;;;9.60;5.30;;;;;;;34.02;37.78;98992.52;105777;1277;97009;-68
2022/07/05 08:25:08;;;;;;;6.40;4.50;;;;;;;33.61;37.45;98987.30;105803;1277;108769;-68
2022/07/05 08:27:36;;;;;;;11.10;5.00;;;;;;;33.25;37.27;98982.73;105840;1277;97989;-66
2022/07/05 08:30:08;;;;;;;13.80;5.20;;;;;;;33.02;37.19;98979.30;105908;1277;99139;-65
2022/07/05 08:32:36;;;;;;;9.60;4.70;;;;;;;32.74;37.16;98979.33;105844;1277;111806;-67
2022/07/05 08:35:08;;;;;;;10.60;4.70;;;;;;;32.51;36.98;98975.74;105843;1277;96336;-69
2022/07/05 08:37:36;;;;;;;12.10;5.20;;;;;;;32.25;36.99;98977.33;105931;1277;107869;-68
2022/07/05 08:40:10;;;;;;;10.10;5.10;;;;;;;32.02;36.93;98979.71;105951;1277;97864;-67
2022/07/05 08:42:38;;;;;;;7.40;4.70;;;;;;;31.84;36.67;98979.15;105962;1277;97902;-68
2022/07/05 08:45:12;;;;;;;9.60;5.00;;;;;;;31.66;36.69;98979.74;105861;1278;111983;-67
2022/07/05 08:47:44;;;;;;;14.10;5.10;;;;;;;31.67;36.48;98977.13;105854;1278;98356;-66
2022/07/05 08:50:15;;;;;;;16.30;5.30;;;;;;;31.93;36.23;98976.59;105866;1277;107739;-69
2022/07/05 08:52:43;;;;;;;21.70;5.90;;;;;;;32.36;36.11;98971.42;105761;1277;97854;-67
2022/07/05 08:55:13;;;;;;;11.60;5.10;;;;;;;32.98;36.18;98968.17;105867;1277;97947;-67
2022/07/05 08:57:44;;;;;;;12.50;4.60;;;;;;;33.68;36.17;98967.88;105892;1277;112077;-66
2022/07/05 09:00:17;;;;;;;10.50;4.30;;;;;;;34.20;35.97;98972.18;105881;1277;98415;-67
2022/07/05 09:02:45;;;;;;;8.20;4.70;;;;;;;34.29;36.05;98965.96;105909;1277;108215;-69
2022/07/05 09:05:16;;;;;;;7.10;4.50;;;;;;;34.27;36.00;98967.62;105904;1277;97876;-67
2022/07/05 09:07:55;;;;;;;15.30;4.60;;;;;;;34.09;36.04;98971.09;105914;1277;98128;-67
2022/07/05 09:10:26;;;;;;;9.60;4.60;;;;;;;33.75;35.74;98971.12;105883;1277;111621;-67
2022/07/05 09:12:56;;;;;;;7.60;4.90;;;;;;;33.48;35.62;98968.36;105844;1277;97679;-67
2022/07/05 09:15:27;;;;;;;8.10;4.90;;;;;;;33.31;35.58;98971.64;105853;1277;108439;-67
2022/07/05 09:17:57;;;;;;;8.70;4.40;;;;;;;33.09;35.50;98969.44;105938;1278;97953;-67
2022/07/05 09:20:27;;;;;;;16.50;5.80;;;;;;;32.88;35.40;98970.84;105870;1277;98442;-66
2022/07/05 09:22:56;;;;;;;9.00;4.90;;;;;;;32.70;35.40;98968.50;105892;1277;111188;-65
2022/07/05 09:25:28;;;;;;;9.10;4.70;;;;;;;32.43;35.21;98969.83;105841;1277;97325;-68
2022/07/05 09:28:06;;;;;;;9.90;4.80;;;;;;;32.19;35.14;98968.64;105830;1277;107583;-64
2022/07/05 09:30:41;;;;;;;8.60;4.90;;;;;;;31.97;35.05;98969.25;105837;1277;97989;-67
2022/07/05 09:33:15;;;;;;;12.10;5.20;;;;;;;31.85;35.03;98969.75;105814;1278;97927;-66
2022/07/05 09:35:56;;;;;;;12.20;5.20;;;;;;;31.96;34.92;98968.92;105875;1277;112455;-66
2022/07/05 09:38:30;;;;;;;12.80;5.20;;;;;;;32.06;34.85;98966.89;105851;1277;98369;-66
2022/07/05 09:41:01;;;;;;;13.20;5.50;;;;;;;32.07;34.59;98968.27;105848;1277;108409;-66
2022/07/05 09:43:30;;;;;;;11.90;5.70;;;;;;;31.90;34.79;98968.23;105873;1277;96060;-68
2022/07/05 09:46:05;;;;;;;11.20;6.30;;;;;;;31.75;34.96;98971.48;105904;1277;97896;-65
2022/07/05 09:48:35;;;;;;;13.10;6.10;;;;;;;31.58;35.01;98976.23;105885;1277;111432;-68
2022/07/05 09:51:13;;;;;;;17.30;5.60;;;;;;;31.41;35.02;98976.75;105943;1277;96852;-70
2022/07/05 09:54:02;;;;;;;11.20;5.20;;;;;;;31.20;34.73;98977.12;105777;1277;107235;-67
2022/07/05 09:56:47;;;;;;;15.00;5.90;;;;;;;30.93;34.72;98976.17;105855;1277;98619;-68
2022/07/05 09:59:20;;;;;;;12.50;5.90;;;;;;;30.76;35.02;98973.16;105896;1277;97675;-68
2022/07/05 10:01:51;;;;;;;10.90;4.80;;;;;;;30.65;34.89;98969.19;105812;1277;111040;-67
2022/07/05 10:04:21;;;;;;;11.90;6.00;;;;;;;30.51;34.91;98970.94;105958;1277;96584;-66
2022/07/05 10:06:53;;;;;;;8.50;5.60;;;;;;;30.48;34.82;98972.73;105897;1277;108344;-67
2022/07/05 10:09:22;;;;;;;12.90;5.70;;;;;;;30.41;35.03;98974.74;105943;1277;97952;-67
2022/07/05 10:11:54;;;;;;;15.00;5.90;;;;;;;30.34;35.01;98977.30;105872;1278;97830;-66
2022/07/05 10:14:26;;;;;;;10.20;5.50;;;;;;;30.28;34.98;98978.88;105952;1277;111333;-64
2022/07/05 10:17:01;;;;;;;13.20;6.10;;;;;;;30.18;35.08;98976.27;105987;1277;97983;-67
2022/07/05 10:19:40;;;;;;;10.70;5.30;;;;;;;30.13;35.16;98980.28;106035;1277;107877;-68
2022/07/05 10:22:18;;;;;;;13.10;5.10;;;;;;;30.07;35.16;98976.88;105980;1277;97857;-67
2022/07/05 10:24:54;;;;;;;10.70;5.50;;;;;;;30.01;35.25;98979.77;105981;1278;97858;-68
2022/07/05 10:27:27;;;;;;;10.60;5.20;;;;;;;29.98;35.29;98981.40;105898;1277;111472;-68
2022/07/05 10:29:59;;;;;;;10.90;5.10;;;;;;;29.96;35.31;98976.07;105944;1278;98190;-69
2022/07/05 10:32:33;;;;;;;;;;;;;;;29.96;35.34;98975.88;105960;1277;108000;-67
2022/07/05 10:35:05;;;;;;;14.60;5.80;;;;;;;29.94;35.42;98976.46;105846;1279;97972;-68
2022/07/05 10:37:38;;;;;;;12.40;5.40;;;;;;;29.96;35.46;98973.16;105966;1277;95182;-68
2022/07/05 10:40:10;;;;;;;16.40;5.60;;;;;;;29.89;35.45;98977.02;105964;1277;111762;-69
2022/07/05 10:42:42;;;;;;;9.70;5.20;;;;;;;29.81;35.53;98980.67;105866;1278;95372;-67
2022/07/05 10:45:29;;;;;;;13.10;6.10;;;;;;;29.71;35.33;98976.85;105892;1277;108346;-66
2022/07/05 10:48:09;;;;;;;19.80;6.60;;;;;;;29.53;35.63;98979.61;105878;1277;95308;-67
2022/07/05 10:50:49;;;;;;;19.20;6.20;;;;;;;29.43;35.77;98975.05;105868;1279;97902;-66
2022/07/05 10:53:35;;;;;;;14.70;6.30;;;;;;;29.38;35.96;98975.36;105928;1277;110186;-68
2022/07/05 10:56:06;;;;;;;14.90;6.30;;;;;;;29.27;36.08;98982.70;105910;1279;98465;-65
2022/07/05 10:58:38;;;;;;;17.40;6.40;;;;;;;29.13;36.33;98987.83;105853;1277;107055;-66
2022/07/05 11:01:11;;;;;;;14.70;5.70;;;;;;;28.90;35.98;98987.63;105808;1280;98023;-67
2022/07/05 11:04:00;;;;;;;13.50;5.70;;;;;;;28.74;36.24;98987.34;105923;1277;97851;-67
2022/07/05 11:06:37;;;;;;;14.40;5.60;;;;;;;28.64;36.26;98986.67;105958;1277;111487;-66
2022/07/05 11:09:10;;;;;;;10.10;5.50;;;;;;;28.52;36.31;98982.96;105878;1277;98201;-65
2022/07/05 11:11:44;;;;;;;13.30;5.60;;;;;;;28.44;36.51;98984.96;105983;1277;107248;-68
2022/07/05 11:14:37;;;;;;;11.30;5.50;;;;;;;28.32;36.50;98986.60;105979;1278;96577;-67
2022/07/05 11:17:11;;;;;;;12.30;5.40;;;;;;;28.26;36.72;98983.48;107577;1277;95889;-66
2022/07/05 11:20:06;;;;;;;14.50;5.80;;;;;;;28.13;36.67;98975.17;107678;1277;111189;-66
2022/07/05 11:22:36;;;;;;;11.00;5.30;;;;;;;28.02;37.05;98974.19;107711;1277;95795;-67
2022/07/05 11:25:06;;;;;;;12.80;5.10;;;;;;;27.99;36.92;98967.92;106483;1277;107820;-68
2022/07/05 11:27:35;;;;;;;12.70;5.40;;;;;;;27.97;37.26;98961.58;105786;1277;97964;-67
2022/07/05 11:30:22;;;;;;;11.30;4.90;;;;;;;27.94;37.01;98955.58;107710;1277;95990;-66
2022/07/05 11:32:53;;;;;;;13.10;5.60;;;;;;;27.85;37.33;98961.86;105932;1278;111894;-69
2022/07/05 11:35:33;;;;;;;14.60;5.80;;;;;;;27.75;37.37;98962.10;105928;1277;98113;-66
2022/07/05 11:38:04;;;;;;;15.50;5.40;;;;;;;27.58;37.38;98959.56;105885;1279;107672;-67